Time;durP1;ratioP1;P1;durP2;ratioP2;P2;SDS_P1;SDS_P2;PMS_P1;PMS_P2;Temp;Humidity;BMP_temperature;BMP_pressure;BME280_temperature;BME280_humidity;BME280_pressure;Samples;Min_cycle;Max_cycle;Signal;HPM_P1;HPM_P2
2022/10/19 00:04:50;;;;;;;5.18;1.50;;;;;;;9.47;92.91;102677.22;10381723;28;20049;-75
2022/10/19 00:09:52;;;;;;;3.17;1.30;;;;;;;9.54;93.13;102687.19;10368912;28;20045;-74
2022/10/19 00:14:53;;;;;;;11.30;1.88;;;;;;;9.60;93.35;102673.53;10347285;28;20065;-74
2022/10/19 00:19:55;;;;;;;8.57;1.80;;;;;;;9.65;93.20;102679.88;10354695;28;20053;-74
2022/10/19 00:24:57;;;;;;;11.70;1.80;;;;;;;9.69;93.29;102680.09;10337765;28;20046;-75
2022/10/19 00:29:59;;;;;;;9.40;1.85;;;;;;;9.74;93.26;102682.94;10365363;28;20041;-74
2022/10/19 00:35:02;;;;;;;10.20;1.77;;;;;;;9.79;93.38;102676.25;10357828;28;20046;-74
2022/10/19 00:40:04;;;;;;;4.28;1.33;;;;;;;9.81;93.24;102684.19;10361182;28;20057;-73
2022/10/19 00:45:14;;;;;;;5.32;1.42;;;;;;;9.81;93.33;102684.19;10373785;28;20056;-74
2022/10/19 00:50:16;;;;;;;6.90;1.65;;;;;;;9.84;93.39;102694.78;10348667;28;20061;-74
2022/10/19 00:55:18;;;;;;;5.50;1.50;;;;;;;9.88;93.37;102696.75;10358196;28;20491;-74
2022/10/19 01:00:20;;;;;;;8.07;1.13;;;;;;;9.90;93.41;102685.53;10359864;28;20037;-75
2022/10/19 01:05:22;;;;;;;5.38;1.25;;;;;;;9.88;93.33;102681.06;10374130;28;20096;-75
2022/10/19 01:10:53;;;;;;;5.28;1.40;;;;;;;9.89;93.37;102680.22;10381521;28;20128;-75
2022/10/19 01:16:12;;;;;;;11.07;1.60;;;;;;;9.84;93.28;102673.88;10358135;28;20045;-75
2022/10/19 01:21:28;;;;;;;4.78;1.40;;;;;;;9.84;93.25;102674.75;10372936;28;20038;-75
2022/10/19 01:27:02;;;;;;;10.32;1.42;;;;;;;9.84;92.87;102687.84;10359978;28;20067;-75
2022/10/19 01:32:09;;;;;;;5.30;1.20;;;;;;;9.85;93.29;102686.13;10381851;28;20037;-75
2022/10/19 01:37:44;;;;;;;12.73;1.77;;;;;;;9.87;93.08;102684.47;10364244;28;20049;-75
2022/10/19 01:42:50;;;;;;;7.40;1.08;;;;;;;9.88;92.91;102676.72;10380830;28;20084;-75
2022/10/19 01:47:54;;;;;;;8.63;1.50;;;;;;;9.91;92.82;102681.22;10358929;28;20363;-75
2022/10/19 01:52:57;;;;;;;5.07;1.60;;;;;;;9.97;92.88;102689.38;10380074;28;20038;-75
2022/10/19 01:58:04;;;;;;;4.18;1.42;;;;;;;9.98;92.61;102679.78;10375220;28;20145;-74
2022/10/19 02:03:11;;;;;;;8.77;1.20;;;;;;;9.96;92.40;102679.72;10356742;28;20056;-74
2022/10/19 02:08:19;;;;;;;5.55;0.98;;;;;;;9.97;92.45;102673.66;10382071;28;20045;-74
2022/10/19 02:13:22;;;;;;;3.75;1.00;;;;;;;9.98;92.46;102666.69;10377948;28;20127;-74
2022/10/19 02:18:32;;;;;;;8.38;1.05;;;;;;;9.97;92.31;102671.03;10377696;28;20053;-74
2022/10/19 02:23:34;;;;;;;;;;;;;;;9.97;92.23;102660.56;10378712;28;20548;-74
2022/10/19 02:28:37;;;;;;;6.50;0.98;;;;;;;9.98;92.29;102659.72;10370374;28;20374;-74
2022/10/19 02:33:38;;;;;;;9.02;0.85;;;;;;;9.97;92.23;102671.03;10375907;28;20050;-74
2022/10/19 02:38:40;;;;;;;10.80;0.98;;;;;;;9.97;92.17;102664.88;10381644;28;20402;-75
2022/10/19 02:43:46;;;;;;;2.90;0.80;;;;;;;9.99;91.87;102663.28;10375881;28;20042;-74
2022/10/19 02:48:50;;;;;;;10.38;1.13;;;;;;;9.99;92.07;102676.34;10378675;28;20041;-74
2022/10/19 02:53:52;;;;;;;5.00;0.68;;;;;;;9.98;91.96;102680.66;10376495;28;20041;-74
2022/10/19 02:58:53;;;;;;;4.97;0.88;;;;;;;9.96;91.88;102679.72;10375215;28;20072;-74
2022/10/19 03:03:57;;;;;;;5.47;0.75;;;;;;;9.98;91.56;102683.28;10369471;28;20115;-74
2022/10/19 03:08:59;;;;;;;7.32;1.00;;;;;;;9.98;91.38;102685.91;10376875;28;20056;-74
2022/10/19 03:14:00;;;;;;;7.03;1.15;;;;;;;9.98;91.33;102688.53;10375563;28;20056;-74
2022/10/19 03:19:02;;;;;;;4.45;0.80;;;;;;;9.98;91.50;102685.91;10377931;28;20076;-74
2022/10/19 03:24:04;;;;;;;4.38;0.90;;;;;;;9.96;91.32;102689.28;10375165;28;20042;-74
2022/10/19 03:29:06;;;;;;;3.78;0.90;;;;;;;9.93;91.63;102684.78;10366677;28;20065;-74
2022/10/19 03:34:08;;;;;;;6.80;1.15;;;;;;;9.92;91.34;102693.44;10383068;28;20072;-75
2022/10/19 03:39:12;;;;;;;9.80;0.98;;;;;;;9.91;91.42;102699.53;10384341;28;20056;-75
2022/10/19 03:44:14;;;;;;;5.82;0.80;;;;;;;9.89;91.24;102691.59;10370143;28;20077;-74
2022/10/19 03:49:15;;;;;;;9.82;0.98;;;;;;;9.87;91.48;102700.19;10382897;28;20171;-75
2022/10/19 03:54:17;;;;;;;6.75;0.98;;;;;;;9.84;91.50;102692.19;10368342;28;20515;-73
2022/10/19 03:59:23;;;;;;;5.88;0.90;;;;;;;9.81;91.32;102687.69;10332009;28;20133;-73
2022/10/19 04:04:24;;;;;;;4.60;0.98;;;;;;;9.72;91.26;102685.50;10354693;28;20069;-75
2022/10/19 04:09:26;;;;;;;5.50;1.13;;;;;;;9.70;91.56;102695.00;10394400;28;20052;-75
2022/10/19 04:14:28;;;;;;;6.20;0.93;;;;;;;9.69;91.20;102698.41;10391461;28;20569;-74
2022/10/19 04:19:39;;;;;;;4.78;0.77;;;;;;;9.71;91.59;102707.25;10418684;28;20103;-75
2022/10/19 04:24:41;;;;;;;6.85;0.80;;;;;;;9.69;91.66;102711.50;10394656;28;20041;-74
2022/10/19 04:29:43;;;;;;;3.60;0.73;;;;;;;9.71;91.95;102707.25;10378132;28;20037;-74
2022/10/19 04:34:44;;;;;;;9.57;1.25;;;;;;;9.72;91.99;102714.28;10365618;28;20042;-74
2022/10/19 04:39:46;;;;;;;6.90;1.17;;;;;;;9.71;92.27;102715.13;10344071;28;20402;-74
2022/10/19 04:44:47;;;;;;;4.82;1.23;;;;;;;9.72;92.22;102716.88;10335864;28;20088;-74
2022/10/19 04:49:49;;;;;;;6.10;1.20;;;;;;;9.71;92.41;102725.56;10357361;28;20050;-73
2022/10/19 04:54:50;;;;;;;7.55;1.98;;;;;;;9.71;92.47;102725.56;10357544;28;20137;-74
2022/10/19 04:59:52;;;;;;;17.35;1.77;;;;;;;9.70;92.56;102715.91;10357036;28;20046;-74
2022/10/19 05:04:54;;;;;;;8.13;1.10;;;;;;;9.70;92.18;102715.03;10361695;28;20317;-73
2022/10/19 05:09:56;;;;;;;8.43;1.70;;;;;;;9.69;92.19;102711.50;10335463;28;20434;-74
2022/10/19 05:14:57;;;;;;;9.82;2.08;;;;;;;9.67;92.13;102712.25;10378027;28;20425;-73
2022/10/19 05:19:59;;;;;;;8.68;1.60;;;;;;;9.75;91.85;102717.88;10340586;28;20153;-74
2022/10/19 05:25:01;;;;;;;11.23;2.88;;;;;;;9.74;91.29;102719.56;10305379;28;20603;-73
2022/10/19 05:30:03;;;;;;;5.40;1.63;;;;;;;9.73;91.00;102708.22;10375125;28;20631;-73
2022/10/19 05:35:05;;;;;;;8.00;1.20;;;;;;;9.73;90.91;102703.00;10358603;28;20042;-74
2022/10/19 05:40:07;;;;;;;7.13;1.20;;;;;;;9.77;90.61;102688.34;10362876;28;20062;-72
2022/10/19 05:45:09;;;;;;;10.15;1.95;;;;;;;9.76;90.53;102693.50;10327688;28;20042;-74
2022/10/19 05:50:11;;;;;;;6.05;1.05;;;;;;;9.76;90.42;102706.56;10377737;28;20075;-74
2022/10/19 05:55:12;;;;;;;8.32;1.13;;;;;;;9.73;90.59;102703.00;10319003;28;20042;-75
2022/10/19 06:00:14;;;;;;;6.80;1.05;;;;;;;9.71;90.55;102698.50;10338797;28;20085;-75
2022/10/19 06:05:16;;;;;;;7.93;1.48;;;;;;;9.77;90.77;102697.91;10380859;28;20057;-73
2022/10/19 06:10:18;;;;;;;6.57;1.13;;;;;;;9.78;90.78;102707.56;10360000;28;20073;-75
2022/10/19 06:15:19;;;;;;;13.60;1.60;;;;;;;9.83;90.72;102703.47;10379604;28;20049;-75
2022/10/19 06:20:21;;;;;;;12.57;1.38;;;;;;;9.86;90.81;102708.84;10384659;28;20573;-74
2022/10/19 06:25:23;;;;;;;11.65;2.03;;;;;;;9.86;90.88;102725.47;10382486;28;20052;-73
2022/10/19 06:30:25;;;;;;;8.38;1.67;;;;;;;9.89;90.97;102724.69;10377213;28;20095;-74
2022/10/19 06:35:27;;;;;;;9.52;2.13;;;;;;;9.90;90.74;102710.81;10363516;28;20577;-76
2022/10/19 06:40:29;;;;;;;8.32;1.80;;;;;;;9.97;90.93;102719.84;10377153;28;20048;-76
2022/10/19 06:45:30;;;;;;;6.30;1.40;;;;;;;10.01;91.03;102720.13;10379949;28;20080;-75
2022/10/19 06:50:36;;;;;;;9.48;1.52;;;;;;;10.02;91.00;102724.50;10378909;28;20038;-76
2022/10/19 06:55:38;;;;;;;4.45;1.27;;;;;;;10.09;91.10;102739.69;10384889;28;20046;-75
2022/10/19 07:00:39;;;;;;;8.40;1.63;;;;;;;10.20;91.04;102747.19;10377499;28;20069;-76
2022/10/19 07:05:41;;;;;;;11.27;1.45;;;;;;;10.25;91.20;102746.63;10379869;28;20042;-76
2022/10/19 07:10:42;;;;;;;6.68;1.40;;;;;;;10.31;91.22;102756.47;10349260;28;20803;-75
2022/10/19 07:15:44;;;;;;;11.40;1.67;;;;;;;10.35;91.18;102753.22;10341806;28;20037;-75
2022/10/19 07:20:53;;;;;;;10.35;1.90;;;;;;;10.43;91.07;102761.44;10344191;28;20066;-74
2022/10/19 07:26:00;;;;;;;7.80;1.63;;;;;;;10.53;90.93;102762.81;10357009;28;20131;-76
2022/10/19 07:31:08;;;;;;;13.32;2.10;;;;;;;10.60;90.71;102770.16;10354143;28;20497;-73
2022/10/19 07:36:11;;;;;;;7.82;1.50;;;;;;;10.66;90.48;102765.22;10321439;28;20046;-74
2022/10/19 07:41:15;;;;;;;11.70;2.65;;;;;;;10.79;90.01;102756.19;10334755;28;20049;-76
2022/10/19 07:46:22;;;;;;;5.53;1.92;;;;;;;10.85;89.73;102763.47;10347387;28;20068;-78
2022/10/19 07:51:24;;;;;;;10.25;1.98;;;;;;;10.90;89.66;102764.56;10344620;28;20061;-75
2022/10/19 07:56:27;;;;;;;12.82;2.58;;;;;;;10.91;89.45;102756.81;10340138;28;20040;-76
2022/10/19 08:01:34;;;;;;;12.98;1.70;;;;;;;10.99;89.06;102762.41;10349113;28;20081;-77
2022/10/19 08:06:37;;;;;;;11.57;2.20;;;;;;;11.20;88.70;102765.13;10345247;28;20046;-76
2022/10/19 08:11:38;;;;;;;12.45;1.70;;;;;;;11.29;88.11;102765.53;10342905;28;20129;-75
2022/10/19 08:16:43;;;;;;;19.05;1.50;;;;;;;11.38;87.28;102775.56;10324325;28;20057;-76
2022/10/19 08:21:46;;;;;;;18.40;4.00;;;;;;;11.50;86.76;102768.22;10343025;28;20042;-76
2022/10/19 08:26:50;;;;;;;10.40;1.65;;;;;;;11.62;85.69;102780.09;10325563;28;20544;-75
2022/10/19 08:31:54;;;;;;;7.38;1.25;;;;;;;11.73;84.76;102784.09;10342032;28;20178;-71
2022/10/19 08:36:56;;;;;;;6.50;1.20;;;;;;;11.84;84.22;102787.19;10339181;28;20445;-74
2022/10/19 08:48:38;;;;;;;7.00;1.38;;;;;;;11.97;81.70;102783.41;10324699;28;20500;-72
2022/10/19 08:53:45;;;;;;;12.43;1.38;;;;;;;11.95;80.96;102783.34;10360828;28;20053;-72
2022/10/19 08:58:52;;;;;;;10.50;1.10;;;;;;;12.07;80.31;102774.19;10354526;28;20148;-72
2022/10/19 09:04:12;;;;;;;8.95;1.15;;;;;;;12.17;80.23;102787.81;10350800;28;20046;-72
2022/10/19 09:09:17;;;;;;;6.80;1.30;;;;;;;12.34;80.01;102787.59;10343424;28;20064;-72
2022/10/19 09:14:48;;;;;;;5.97;0.73;;;;;;;12.45;79.34;102780.19;10356281;28;20041;-72
2022/10/19 09:19:51;;;;;;;5.88;1.30;;;;;;;12.49;77.91;102769.84;10348019;28;20060;-72
2022/10/19 09:25:12;;;;;;;11.65;1.98;;;;;;;12.61;77.26;102772.09;10378913;28;20041;-72
2022/10/19 09:30:16;;;;;;;11.80;2.30;;;;;;;12.63;76.37;102765.16;10358940;28;20057;-72
2022/10/19 09:35:40;;;;;;;17.38;2.92;;;;;;;12.64;75.83;102769.59;10377504;28;20425;-73
2022/10/19 09:40:42;;;;;;;9.77;2.10;;;;;;;12.72;75.39;102752.38;10350123;28;20104;-72
2022/10/19 09:45:50;;;;;;;5.35;1.15;;;;;;;12.94;75.00;102752.31;10375640;28;20414;-72
2022/10/19 09:50:58;;;;;;;3.67;0.95;;;;;;;12.99;74.37;102774.44;10363029;28;20056;-72
2022/10/19 09:56:05;;;;;;;8.50;1.33;;;;;;;13.15;73.92;102758.41;10378698;28;20452;-72
2022/10/19 10:01:29;;;;;;;9.27;1.15;;;;;;;12.88;71.93;102759.13;10366105;28;20045;-72
2022/10/19 10:06:46;;;;;;;7.05;0.88;;;;;;;13.00;71.92;102768.31;10349565;28;20042;-72
2022/10/19 10:11:49;;;;;;;6.85;1.27;;;;;;;13.17;71.34;102767.25;10362577;28;20053;-72
2022/10/19 10:17:13;;;;;;;8.50;1.25;;;;;;;13.44;71.05;102750.75;10365420;28;20144;-73
2022/10/19 10:22:26;;;;;;;7.57;1.33;;;;;;;13.42;70.24;102768.19;10378475;28;20060;-73
2022/10/19 10:27:37;;;;;;;6.90;1.35;;;;;;;13.61;69.87;102770.66;10362674;28;20045;-74
2022/10/19 10:32:47;;;;;;;6.72;1.08;;;;;;;14.10;69.21;102754.81;10372981;28;21054;-73
2022/10/19 10:50:56;;;;;;;7.07;1.00;;;;;;;13.63;67.85;102741.78;10744458;22;20064;-73
2022/10/19 10:55:57;;;;;;;8.30;1.48;;;;;;;13.73;68.22;102754.41;10428327;28;20111;-73
2022/10/19 11:01:02;;;;;;;9.02;1.60;;;;;;;13.95;68.08;102734.97;10396250;28;20760;-75
2022/10/19 11:06:08;;;;;;;6.10;1.40;;;;;;;14.51;67.15;102726.25;10401866;28;20165;-75
2022/10/19 11:11:23;;;;;;;5.68;0.80;;;;;;;15.01;66.72;102713.78;10391927;28;20053;-75
2022/10/19 11:16:39;;;;;;;9.55;1.30;;;;;;;15.45;66.26;102710.63;10395693;28;20383;-76
2022/10/19 11:22:02;;;;;;;11.23;1.00;;;;;;;15.81;65.04;102707.22;10384986;28;20081;-76
2022/10/19 11:27:33;;;;;;;7.15;1.58;;;;;;;15.89;63.80;102697.72;10417224;28;20037;-76
2022/10/19 11:32:38;;;;;;;8.05;2.35;;;;;;;15.79;63.22;102694.81;10407186;28;20041;-75
2022/10/19 11:37:52;;;;;;;8.13;1.85;;;;;;;15.38;62.83;102700.72;10397635;28;20132;-75
2022/10/19 11:43:42;;;;;;;4.75;1.80;;;;;;;14.97;63.58;102700.47;10398458;28;20073;-74
2022/10/19 11:49:25;;;;;;;5.93;1.30;;;;;;;14.90;63.47;102691.44;10396966;28;20509;-75
2022/10/19 11:55:01;;;;;;;7.85;1.83;;;;;;;15.13;63.73;102680.66;10295673;28;20042;-74
2022/10/19 12:00:08;;;;;;;4.40;1.20;;;;;;;14.66;63.92;102668.75;10434645;28;20055;-76
2022/10/19 12:05:53;;;;;;;7.30;1.67;;;;;;;14.71;63.94;102652.19;10434667;28;20127;-76
2022/10/19 12:11:26;;;;;;;2.20;0.65;;;;;;;14.77;63.19;102660.28;10464683;28;20041;-74
2022/10/19 12:16:35;;;;;;;3.67;1.10;;;;;;;14.46;63.56;102644.41;10402429;28;20053;-76
2022/10/19 12:21:41;;;;;;;7.68;1.30;;;;;;;14.91;63.50;102643.13;10440262;28;20095;-75
2022/10/19 12:26:44;;;;;;;9.27;1.98;;;;;;;14.62;63.45;102650.16;10411116;28;20044;-74
2022/10/19 12:31:48;;;;;;;3.45;1.10;;;;;;;14.42;64.22;102642.53;10421984;28;20045;-74
2022/10/19 12:37:13;;;;;;;10.00;1.35;;;;;;;14.19;64.04;102636.53;10416870;28;20060;-77
2022/10/19 12:42:32;;;;;;;7.35;1.30;;;;;;;14.60;64.39;102626.38;10418032;28;20048;-76
2022/10/19 12:47:34;;;;;;;3.50;1.10;;;;;;;14.57;64.08;102625.41;10397778;28;20040;-75
2022/10/19 12:52:48;;;;;;;3.92;1.08;;;;;;;14.41;64.04;102626.66;10425140;28;20049;-75
2022/10/19 12:57:59;;;;;;;8.13;1.63;;;;;;;14.37;64.42;102624.81;10425424;28;20055;-76
2022/10/19 13:03:15;;;;;;;4.40;0.90;;;;;;;14.31;64.63;102605.31;10404299;28;20047;-75
2022/10/19 13:08:29;;;;;;;4.50;0.90;;;;;;;14.56;64.73;102598.16;10420396;28;20590;-74
2022/10/19 13:14:01;;;;;;;3.15;0.80;;;;;;;14.67;64.03;102596.75;10438856;28;20061;-75
2022/10/19 13:19:12;;;;;;;3.17;1.00;;;;;;;14.62;63.86;102592.19;10425687;28;20442;-76
2022/10/19 13:24:23;;;;;;;5.97;0.93;;;;;;;14.38;63.81;102587.03;10435938;28;20069;-76
2022/10/19 13:29:27;;;;;;;9.85;1.10;;;;;;;14.24;64.04;102573.47;10427977;28;20052;-75
2022/10/19 13:34:29;;;;;;;5.70;1.10;;;;;;;14.15;64.45;102571.44;10441971;28;20087;-74
2022/10/19 13:39:37;;;;;;;9.90;1.40;;;;;;;14.14;64.63;102561.72;10421425;28;20041;-76
2022/10/19 13:44:44;;;;;;;24.52;2.15;;;;;;;14.06;64.71;102564.13;10432633;28;20580;-77
2022/10/19 13:50:00;;;;;;;2.95;0.90;;;;;;;13.92;64.31;102553.16;10440917;28;20080;-77
2022/10/19 13:55:13;;;;;;;5.65;1.02;;;;;;;13.72;64.52;102562.16;10412808;28;20037;-75
2022/10/19 14:00:17;;;;;;;123.70;7.68;;;;;;;13.72;65.40;102556.91;10421744;28;20068;-75
2022/10/19 14:05:30;;;;;;;5.15;0.65;;;;;;;13.70;65.07;102546.31;10430837;28;20041;-73
2022/10/19 14:10:34;;;;;;;17.20;3.80;;;;;;;13.59;65.28;102540.72;10444017;28;20044;-75
2022/10/19 14:15:59;;;;;;;5.18;0.90;;;;;;;13.48;65.43;102535.94;10415508;28;20037;-78
2022/10/19 14:21:03;;;;;;;11.45;2.05;;;;;;;13.41;65.90;102540.13;10423217;28;20053;-75
2022/10/19 14:26:06;;;;;;;5.95;0.73;;;;;;;13.29;65.89;102529.16;10436599;28;20036;-75
2022/10/19 14:31:16;;;;;;;8.45;1.23;;;;;;;13.17;66.25;102524.38;10431438;28;20075;-74
2022/10/19 14:36:21;;;;;;;8.50;1.10;;;;;;;13.13;66.65;102515.47;10401430;28;20041;-75
2022/10/19 14:41:26;;;;;;;8.10;0.70;;;;;;;13.07;67.00;102504.75;10415810;28;20073;-77
2022/10/19 14:46:33;;;;;;;5.55;0.80;;;;;;;12.99;67.00;102506.22;10437408;28;20098;-76
2022/10/19 14:51:43;;;;;;;3.05;0.90;;;;;;;12.92;67.00;102507.72;10426840;28;20055;-75
2022/10/19 14:56:54;;;;;;;4.78;0.93;;;;;;;12.84;67.86;102503.97;10429899;28;20123;-76
2022/10/19 15:02:01;;;;;;;3.13;0.90;;;;;;;12.70;68.36;102485.97;10417697;28;20041;-75
2022/10/19 15:07:16;;;;;;;3.35;0.65;;;;;;;12.62;68.47;102497.03;10432200;28;20118;-75
2022/10/19 15:12:25;;;;;;;4.97;1.05;;;;;;;12.52;68.67;102486.19;10441097;28;20067;-76
2022/10/19 15:17:28;;;;;;;;;;;;;;;12.55;68.92;102481.06;10442655;28;20037;-75
2022/10/19 15:22:30;;;;;;;4.18;0.93;;;;;;;12.40;69.59;102490.09;10414305;28;19979;-76
2022/10/19 15:27:37;;;;;;;4.20;0.80;;;;;;;12.34;69.74;102486.41;10431889;28;20037;-74
2022/10/19 15:32:39;;;;;;;3.90;0.80;;;;;;;12.24;70.20;102489.53;10447536;28;20045;-75
2022/10/19 15:37:43;;;;;;;2.70;0.80;;;;;;;12.09;70.59;102488.97;10446633;28;20041;-74
2022/10/19 15:42:47;;;;;;;5.88;1.17;;;;;;;11.94;71.18;102484.03;10432212;28;20411;-75
2022/10/19 15:48:09;;;;;;;4.75;0.85;;;;;;;11.81;71.66;102483.50;10439263;28;20044;-75
2022/10/19 15:53:10;;;;;;;5.40;1.02;;;;;;;11.63;72.06;102488.94;10455156;28;20041;-74
2022/10/19 15:58:13;;;;;;;8.68;1.00;;;;;;;11.45;72.76;102480.31;10443448;28;20040;-74
2022/10/19 16:03:15;;;;;;;7.03;1.40;;;;;;;11.30;73.30;102480.56;10444215;28;20060;-74
2022/10/19 16:08:16;;;;;;;4.05;1.30;;;;;;;11.19;73.80;102469.66;10442285;28;20037;-74
2022/10/19 16:13:18;;;;;;;5.80;1.50;;;;;;;11.00;74.14;102465.34;10441697;28;20091;-74
2022/10/19 16:18:19;;;;;;;5.85;1.60;;;;;;;10.79;74.95;102454.84;10436342;28;20103;-73
2022/10/19 16:23:21;;;;;;;10.30;1.80;;;;;;;10.56;75.47;102459.09;10435983;28;20501;-74
2022/10/19 16:28:23;;;;;;;9.52;1.52;;;;;;;10.30;76.40;102465.75;10450013;28;20041;-74
2022/10/19 16:33:24;;;;;;;32.10;11.85;;;;;;;10.04;77.54;102463.78;10437635;28;20048;-74
2022/10/19 16:38:27;;;;;;;19.35;6.38;;;;;;;9.82;78.27;102460.97;10434873;28;20048;-75
2022/10/19 16:43:29;;;;;;;15.70;5.53;;;;;;;9.62;79.28;102452.16;10421671;28;20561;-75
2022/10/19 16:48:33;;;;;;;12.63;3.90;;;;;;;9.44;80.09;102457.41;10448667;28;20053;-76
2022/10/19 16:53:36;;;;;;;11.65;3.80;;;;;;;9.27;80.92;102452.25;10440122;28;20052;-75
2022/10/19 16:58:39;;;;;;;10.95;3.30;;;;;;;9.12;81.49;102456.75;10441588;28;20091;-75
2022/10/19 17:03:42;;;;;;;5.78;2.58;;;;;;;8.95;82.04;102462.00;10438641;28;20139;-75
2022/10/19 17:08:45;;;;;;;9.15;2.47;;;;;;;8.83;82.61;102457.06;10432845;28;20437;-75
2022/10/19 17:14:11;;;;;;;10.55;3.53;;;;;;;8.74;83.15;102460.94;10429726;28;20056;-75
2022/10/19 17:19:12;;;;;;;12.18;4.25;;;;;;;8.61;83.42;102459.38;10438983;28;20076;-76
2022/10/19 17:24:17;;;;;;;24.02;5.15;;;;;;;8.50;83.84;102461.44;10412269;28;20450;-75
2022/10/19 17:29:22;;;;;;;10.00;4.45;;;;;;;8.39;84.17;102455.63;10451107;28;20037;-72
2022/10/19 17:34:26;;;;;;;14.85;5.55;;;;;;;8.31;84.70;102457.81;10410403;28;20060;-73
2022/10/19 17:39:27;;;;;;;11.63;5.63;;;;;;;8.21;85.08;102452.94;10409543;28;20048;-74
2022/10/19 17:44:30;;;;;;;12.65;5.80;;;;;;;8.07;85.30;102446.97;10443170;28;20458;-74
2022/10/19 17:49:32;;;;;;;14.93;5.10;;;;;;;7.96;85.67;102451.59;10439456;28;20476;-72
2022/10/19 17:54:34;;;;;;;21.73;6.20;;;;;;;7.89;85.85;102461.63;10433324;28;20539;-74
2022/10/19 17:59:54;;;;;;;20.45;8.05;;;;;;;7.82;86.25;102452.59;10445602;28;20130;-73
2022/10/19 18:04:56;;;;;;;28.10;10.60;;;;;;;7.74;86.51;102449.53;10437536;28;20150;-73
2022/10/19 18:09:58;;;;;;;36.45;11.68;;;;;;;7.68;86.63;102453.53;10428032;28;20037;-72
2022/10/19 18:14:59;;;;;;;26.35;11.75;;;;;;;7.59;86.88;102453.91;10433716;28;20048;-74
2022/10/19 18:20:03;;;;;;;19.42;8.07;;;;;;;7.54;87.11;102469.28;10431778;28;20048;-72
2022/10/19 18:25:04;;;;;;;15.25;6.35;;;;;;;7.52;87.15;102452.66;10449979;28;20520;-73
2022/10/19 18:30:08;;;;;;;20.33;10.75;;;;;;;7.54;87.04;102453.66;10447588;28;20052;-72
2022/10/19 18:35:09;;;;;;;14.43;5.95;;;;;;;7.55;87.42;102445.03;10437613;28;20460;-73
2022/10/19 18:40:11;;;;;;;17.63;5.45;;;;;;;7.56;87.69;102431.16;10430250;28;20437;-73
2022/10/19 18:45:12;;;;;;;18.42;7.05;;;;;;;7.66;87.80;102429.09;10428177;28;20470;-73
2022/10/19 18:50:16;;;;;;;15.63;4.00;;;;;;;7.85;87.93;102424.06;10436741;28;20053;-72
2022/10/19 18:55:17;;;;;;;14.32;4.20;;;;;;;7.94;87.43;102411.50;10434738;28;20443;-73
2022/10/19 19:00:19;;;;;;;11.52;4.47;;;;;;;7.93;87.70;102396.66;10437425;28;20119;-72
2022/10/19 19:05:21;;;;;;;11.82;6.32;;;;;;;7.86;87.69;102391.94;10449221;28;20040;-73
2022/10/19 19:10:23;;;;;;;9.90;4.18;;;;;;;7.86;87.76;102388.44;10438941;28;20040;-73
2022/10/19 19:15:24;;;;;;;11.25;7.80;;;;;;;7.77;87.66;102388.81;10447756;28;20052;-73
2022/10/19 19:20:26;;;;;;;11.13;2.85;;;;;;;7.69;87.71;102387.53;10451855;28;20041;-73
2022/10/19 19:25:27;;;;;;;8.30;3.30;;;;;;;7.69;87.81;102383.19;10462725;28;20109;-72
2022/10/19 19:30:29;;;;;;;8.48;2.75;;;;;;;7.65;87.92;102380.34;10445393;28;20044;-73
2022/10/19 19:35:30;;;;;;;7.22;2.80;;;;;;;7.60;87.96;102378.38;10442717;28;20490;-74
2022/10/19 19:40:32;;;;;;;15.20;3.72;;;;;;;7.58;87.79;102374.81;10426738;28;20444;-74
2022/10/19 19:45:34;;;;;;;9.65;3.20;;;;;;;7.52;88.06;102374.47;10429505;28;20033;-73
2022/10/19 19:50:37;;;;;;;8.27;3.25;;;;;;;7.55;87.89;102369.44;10452884;28;20452;-72
2022/10/19 19:55:38;;;;;;;12.13;3.55;;;;;;;7.56;87.90;102378.13;10447961;28;20112;-73
2022/10/19 20:00:43;;;;;;;8.63;3.50;;;;;;;7.44;87.89;102370.53;10450343;28;20044;-72
2022/10/19 20:05:44;;;;;;;12.63;4.03;;;;;;;7.40;87.86;102371.16;10438933;28;20044;-72
2022/10/19 20:10:46;;;;;;;8.82;5.00;;;;;;;7.44;88.04;102371.41;10451673;28;20048;-73
2022/10/19 20:15:47;;;;;;;12.23;4.20;;;;;;;7.47;88.11;102364.59;10442546;28;20047;-74
2022/10/19 20:20:49;;;;;;;9.18;3.97;;;;;;;7.44;88.05;102367.91;10444158;28;20040;-71
2022/10/19 20:25:52;;;;;;;9.93;3.67;;;;;;;7.39;87.98;102366.78;10430260;28;20049;-72
2022/10/19 20:31:02;;;;;;;7.90;4.00;;;;;;;7.36;88.19;102354.47;10443250;28;20045;-72
2022/10/19 20:36:08;;;;;;;16.38;4.18;;;;;;;7.37;88.28;102331.91;10430360;28;20025;-73
2022/10/19 20:41:10;;;;;;;7.50;3.67;;;;;;;7.38;88.31;102324.16;10424408;28;20045;-72
2022/10/19 20:46:14;;;;;;;6.65;3.05;;;;;;;7.36;88.37;102328.41;10447566;28;20038;-73
2022/10/19 20:51:25;;;;;;;14.38;3.90;;;;;;;7.35;88.30;102323.13;10431227;28;20044;-73
2022/10/19 20:56:35;;;;;;;7.85;3.65;;;;;;;7.29;88.36;102323.66;10422457;28;20492;-74
2022/10/19 21:01:38;;;;;;;12.00;4.03;;;;;;;7.26;88.57;102316.56;10441768;28;20036;-73
2022/10/19 21:06:42;;;;;;;11.10;3.65;;;;;;;7.24;88.50;102320.81;10436063;28;20037;-73
2022/10/19 21:11:46;;;;;;;11.85;5.03;;;;;;;7.21;88.51;102309.34;10442557;28;20044;-73
2022/10/19 21:16:48;;;;;;;10.45;3.80;;;;;;;7.22;88.46;102285.97;10428141;28;20033;-74
2022/10/19 21:21:54;;;;;;;8.88;4.18;;;;;;;7.18;88.47;102289.22;10424595;28;20045;-73
2022/10/19 21:26:55;;;;;;;12.10;3.78;;;;;;;7.19;88.20;102290.09;10434036;28;20462;-73
2022/10/19 21:31:57;;;;;;;10.20;4.15;;;;;;;7.10;88.56;102274.88;10450735;28;20079;-73
2022/10/19 21:36:59;;;;;;;11.27;3.28;;;;;;;7.14;88.66;102270.72;10443975;28;20393;-72
2022/10/19 21:42:01;;;;;;;10.13;3.30;;;;;;;7.08;88.67;102276.50;10427151;28;20331;-72
2022/10/19 21:47:02;;;;;;;9.60;3.35;;;;;;;7.12;88.71;102275.84;10428136;28;20045;-73
2022/10/19 21:52:04;;;;;;;8.32;3.00;;;;;;;7.13;88.44;102282.88;10438673;28;20135;-74
2022/10/19 21:57:06;;;;;;;10.00;4.85;;;;;;;7.07;88.48;102264.28;10454893;28;20056;-73
2022/10/19 22:02:07;;;;;;;13.05;3.70;;;;;;;7.02;88.32;102250.09;10446472;28;20324;-74
2022/10/19 22:07:09;;;;;;;10.07;3.58;;;;;;;6.95;88.32;102240.16;10444426;28;20037;-73
2022/10/19 22:12:10;;;;;;;8.75;3.25;;;;;;;6.88;88.50;102232.00;10436199;28;20040;-73
2022/10/19 22:17:12;;;;;;;8.80;3.05;;;;;;;6.85;88.74;102226.63;10435626;28;20037;-73
2022/10/19 22:22:13;;;;;;;11.73;3.05;;;;;;;6.76;88.74;102231.34;10441782;28;20421;-73
2022/10/19 22:27:15;;;;;;;11.98;3.42;;;;;;;6.72;88.66;102209.47;10444035;28;20056;-73
2022/10/19 22:32:17;;;;;;;10.50;2.72;;;;;;;6.73;89.04;102213.84;10452012;28;20121;-73
2022/10/19 22:37:19;;;;;;;9.48;3.47;;;;;;;6.68;89.00;102223.09;10446492;28;20427;-74
2022/10/19 22:42:20;;;;;;;6.53;2.72;;;;;;;6.63;89.03;102215.84;10461080;28;20341;-72
2022/10/19 22:47:22;;;;;;;7.32;2.88;;;;;;;6.53;89.04;102202.31;10464686;28;20488;-72
2022/10/19 22:52:23;;;;;;;12.07;2.97;;;;;;;6.53;89.08;102204.00;10456578;28;20235;-72
2022/10/19 22:57:25;;;;;;;8.20;3.00;;;;;;;6.66;89.26;102211.69;10451505;28;20462;-73
2022/10/19 23:02:28;;;;;;;12.77;3.42;;;;;;;6.63;89.28;102202.81;10447215;28;20048;-72
2022/10/19 23:07:29;;;;;;;9.60;2.80;;;;;;;6.60;89.18;102189.66;10456165;28;20280;-73
2022/10/19 23:12:31;;;;;;;7.32;2.70;;;;;;;6.59;89.05;102193.03;10459878;28;20464;-72
2022/10/19 23:17:33;;;;;;;12.05;3.75;;;;;;;6.54;88.66;102182.38;10433518;28;20095;-74
2022/10/19 23:22:34;;;;;;;9.93;2.85;;;;;;;6.53;89.05;102176.28;10452219;28;20045;-74
2022/10/19 23:27:36;;;;;;;5.57;2.63;;;;;;;6.46;88.99;102165.47;10407089;28;20044;-72
2022/10/19 23:32:38;;;;;;;10.40;3.10;;;;;;;6.36;88.92;102169.25;10400440;28;20096;-73
2022/10/19 23:37:40;;;;;;;8.98;2.92;;;;;;;6.37;88.81;102174.53;10426052;28;20040;-73
2022/10/19 23:42:41;;;;;;;9.32;2.67;;;;;;;6.35;89.02;102170.03;10455687;28;20195;-74
2022/10/19 23:47:43;;;;;;;11.80;2.90;;;;;;;6.32;88.71;102162.06;10441865;28;20048;-73
2022/10/19 23:52:45;;;;;;;11.25;3.55;;;;;;;6.26;89.39;102154.84;10438067;28;20610;-73